createdAt,value
2019-02-20T00:02:55.739Z,6.95
2019-02-20T00:07:57.880Z,6.90
2019-02-20T00:13:01.503Z,6.90
2019-02-20T00:18:04.622Z,6.78
2019-02-20T00:23:08.154Z,6.98
2019-02-20T00:28:10.231Z,6.99
2019-02-20T00:33:13.729Z,6.93
2019-02-20T00:38:15.744Z,6.79
2019-02-20T00:43:18.822Z,6.83
2019-02-20T00:48:41.180Z,6.72
2019-02-20T00:53:48.374Z,6.83
2019-02-20T00:58:50.371Z,6.92
2019-02-20T01:03:52.570Z,6.80
2019-02-20T01:08:54.739Z,6.68
2019-02-20T01:13:56.730Z,6.79
2019-02-20T01:19:02.720Z,6.64
2019-02-20T01:24:04.714Z,6.67
2019-02-20T01:29:06.764Z,6.65
2019-02-20T01:34:08.765Z,6.55
2019-02-20T01:39:11.969Z,6.60
2019-02-20T01:44:14.003Z,6.63
2019-02-20T01:49:16.424Z,6.70
2019-02-20T01:54:18.447Z,6.61
2019-02-20T01:59:20.439Z,6.45
2019-02-20T02:04:22.655Z,6.28
2019-02-20T02:09:24.885Z,6.27
2019-02-20T02:14:28.937Z,6.11
2019-02-20T02:19:31.201Z,6.11
2019-02-20T02:24:33.204Z,6.28
2019-02-20T02:29:35.449Z,6.11
2019-02-20T02:34:37.456Z,6.03
2019-02-20T02:39:40.324Z,6.19
2019-02-20T02:44:42.634Z,6.23
2019-02-20T02:49:44.646Z,6.17
2019-02-20T02:54:49.745Z,6.29
2019-02-20T02:59:51.926Z,6.22
2019-02-20T03:04:55.375Z,6.24
2019-02-20T03:09:57.411Z,6.28
2019-02-20T03:14:59.423Z,6.13
2019-02-20T03:20:01.728Z,6.23
2019-02-20T03:25:03.821Z,6.25
2019-02-20T03:30:06.169Z,6.32
2019-02-20T03:35:09.302Z,6.31
2019-02-20T03:40:13.637Z,6.39
2019-02-20T03:45:20.601Z,6.43
2019-02-20T03:50:22.857Z,6.33
2019-02-20T03:55:24.876Z,6.38
2019-02-20T04:00:27.076Z,6.20
2019-02-20T04:05:31.870Z,6.34
2019-02-20T04:10:33.870Z,6.28
2019-02-20T04:15:35.974Z,6.32
2019-02-20T04:20:38.058Z,6.17
2019-02-20T04:25:40.119Z,6.04
2019-02-20T04:30:42.371Z,6.05
2019-02-20T04:35:44.383Z,5.92
2019-02-20T04:40:46.605Z,5.79
2019-02-20T04:45:48.634Z,5.86
2019-02-20T04:50:54.530Z,5.79
2019-02-20T04:55:56.552Z,5.94
2019-02-20T05:00:58.815Z,6.05
2019-02-20T05:06:00.827Z,6.02
2019-02-20T05:11:02.841Z,6.00
2019-02-20T05:16:04.861Z,6.07
2019-02-20T05:21:07.161Z,6.04
2019-02-20T05:26:09.216Z,6.20
2019-02-20T05:31:11.348Z,6.10
2019-02-20T05:36:13.373Z,6.20
2019-02-20T05:41:15.420Z,6.10
2019-02-20T05:46:17.414Z,6.18
2019-02-20T05:51:20.693Z,6.20
2019-02-20T05:56:22.706Z,6.17
2019-02-20T06:01:24.804Z,6.25
2019-02-20T06:06:26.835Z,6.34
2019-02-20T06:11:28.832Z,6.16
2019-02-20T06:16:31.403Z,6.41
2019-02-20T06:21:34.764Z,6.27
2019-02-20T06:26:36.735Z,6.24
2019-02-20T06:31:38.807Z,6.24
2019-02-20T06:36:40.806Z,6.32
2019-02-20T06:41:42.813Z,6.28
2019-02-20T06:46:44.831Z,6.34
2019-02-20T06:51:49.141Z,6.42
2019-02-20T06:56:51.170Z,6.45
2019-02-20T07:01:54.533Z,6.55
2019-02-20T07:07:21.205Z,6.50
2019-02-20T07:12:52.423Z,6.54
2019-02-20T07:18:23.249Z,6.56
2019-02-20T07:23:54.416Z,6.53
2019-02-20T07:29:46.443Z,6.59
2019-02-20T07:34:48.529Z,6.73
2019-02-20T07:39:50.546Z,6.73
2019-02-20T07:44:55.377Z,6.79
2019-02-20T07:49:57.424Z,7.06
2019-02-20T07:54:59.421Z,7.11
2019-02-20T08:00:01.470Z,7.11
2019-02-20T08:05:03.832Z,7.32
2019-02-20T08:10:08.174Z,7.22
2019-02-20T08:15:10.957Z,7.42
2019-02-20T08:20:13.057Z,7.65
2019-02-20T08:25:22.903Z,7.65
2019-02-20T08:30:21.550Z,7.91
2019-02-20T08:35:23.547Z,7.77
2019-02-20T08:40:26.603Z,8.12
2019-02-20T08:45:28.624Z,8.22
2019-02-20T08:50:30.786Z,8.58
2019-02-20T08:55:32.785Z,8.69
2019-02-20T09:00:35.033Z,8.98
2019-02-20T09:05:37.101Z,8.92
2019-02-20T09:10:39.174Z,9.21
2019-02-20T09:15:43.709Z,9.54
2019-02-20T09:20:47.056Z,8.67
2019-02-20T09:25:49.064Z,9.11
2019-02-20T09:30:51.273Z,8.94
2019-02-20T09:35:54.301Z,9.08
2019-02-20T09:40:56.403Z,9.43
2019-02-20T09:46:01.789Z,9.31
2019-02-20T09:51:07.102Z,9.66
2019-02-20T09:56:09.154Z,9.41
2019-02-20T10:01:12.661Z,9.39
2019-02-20T10:06:15.760Z,9.57
2019-02-20T10:11:18.962Z,9.83
2019-02-20T10:16:21.048Z,10.14
2019-02-20T10:21:25.845Z,10.50
2019-02-20T10:26:28.075Z,10.78
2019-02-20T10:31:30.346Z,10.70
2019-02-20T10:36:32.406Z,10.90
2019-02-20T10:41:38.478Z,11.13
2019-02-20T10:46:40.506Z,11.46
2019-02-20T10:51:42.729Z,11.84
2019-02-20T10:56:44.760Z,11.08
2019-02-20T11:01:46.847Z,11.59
2019-02-20T11:06:49.954Z,11.69
2019-02-20T11:11:52.269Z,11.73
2019-02-20T11:16:54.290Z,11.98
2019-02-20T11:21:57.846Z,11.75
2019-02-20T11:26:59.912Z,11.74
2019-02-20T11:32:02.271Z,12.14
2019-02-20T11:37:04.282Z,12.10
2019-02-20T11:42:06.564Z,11.57
2019-02-20T11:47:13.412Z,11.93
2019-02-20T11:52:15.421Z,11.99
2019-02-20T11:57:17.447Z,12.10
2019-02-20T12:02:21.960Z,11.86
2019-02-20T12:07:24.104Z,11.87
2019-02-20T12:12:26.106Z,12.24
2019-02-20T12:17:28.139Z,12.29
2019-02-20T12:22:30.555Z,12.29
2019-02-20T12:27:34.043Z,11.64
2019-02-20T12:32:36.066Z,12.25
2019-02-20T12:37:40.650Z,11.86
2019-02-20T12:42:42.686Z,12.20
2019-02-20T12:47:47.044Z,12.78
2019-02-20T12:52:49.150Z,12.78
2019-02-20T12:57:51.175Z,12.73
2019-02-20T13:02:53.466Z,12.54
2019-02-20T13:07:55.983Z,12.12
2019-02-20T13:12:58.340Z,12.12
2019-02-20T13:18:00.461Z,12.76
2019-02-20T13:23:02.881Z,12.11
2019-02-20T13:28:04.919Z,12.07
2019-02-20T13:33:07.366Z,11.72
2019-02-20T13:38:09.375Z,12.01
2019-02-20T13:43:11.639Z,11.83
2019-02-20T13:48:13.711Z,12.39
2019-02-20T13:53:15.924Z,11.66
2019-02-20T13:58:17.947Z,12.31
2019-02-20T14:03:23.460Z,11.83
2019-02-20T14:08:25.511Z,12.45
2019-02-20T14:13:27.608Z,12.20
2019-02-20T14:18:29.653Z,12.20
2019-02-20T14:23:35.926Z,12.68
2019-02-20T14:28:38.629Z,12.16
2019-02-20T14:33:40.788Z,12.69
2019-02-20T14:38:42.863Z,11.94
2019-02-20T14:43:45.022Z,11.94
2019-02-20T14:48:47.401Z,12.12
2019-02-20T14:53:49.782Z,12.09
2019-02-20T14:58:54.089Z,11.71
2019-02-20T15:03:56.558Z,12.56
2019-02-20T15:09:01.110Z,11.42
2019-02-20T15:14:03.358Z,11.87
2019-02-20T15:19:05.486Z,11.80
2019-02-20T15:24:07.515Z,11.59
2019-02-20T15:29:09.527Z,11.46
2019-02-20T15:34:11.888Z,11.19
2019-02-20T15:39:13.951Z,11.85
2019-02-20T15:44:16.035Z,11.70
2019-02-20T15:49:21.061Z,11.42
2019-02-20T15:54:23.108Z,11.49
2019-02-20T15:59:25.114Z,11.14
2019-02-20T16:04:27.126Z,11.28
2019-02-20T16:09:29.455Z,11.28
2019-02-20T16:14:31.470Z,11.70
2019-02-20T16:19:36.026Z,10.88
2019-02-20T16:24:38.039Z,10.73
2019-02-20T16:29:42.291Z,10.99
2019-02-20T16:34:47.104Z,10.63
2019-02-20T16:39:49.148Z,10.38
2019-02-20T16:44:51.197Z,10.21
2019-02-20T16:49:53.353Z,10.14
2019-02-20T16:54:57.057Z,10.30
2019-02-20T16:59:59.104Z,10.27
2019-02-20T17:05:01.115Z,10.45
2019-02-20T17:10:03.972Z,10.46
2019-02-20T17:15:07.633Z,10.29
2019-02-20T17:20:11.887Z,10.34
2019-02-20T17:25:16.969Z,10.07
2019-02-20T17:30:24.109Z,10.01
2019-02-20T17:35:26.176Z,9.89
2019-02-20T17:40:28.357Z,9.93
2019-02-20T17:45:30.412Z,9.99
2019-02-20T17:50:35.441Z,9.99
2019-02-20T17:55:37.571Z,9.80
2019-02-20T18:00:41.321Z,9.63
2019-02-20T18:05:45.875Z,9.45
2019-02-20T18:10:47.941Z,9.45
2019-02-20T18:15:51.762Z,9.28
2019-02-20T18:20:59.285Z,9.42
2019-02-20T18:26:01.328Z,9.42
2019-02-20T18:31:03.556Z,9.40
2019-02-20T18:36:05.707Z,9.51
2019-02-20T18:41:08.140Z,9.37
2019-02-20T18:46:10.181Z,9.29
2019-02-20T18:51:12.382Z,9.11
2019-02-20T18:56:22.284Z,9.06
2019-02-20T19:01:24.646Z,9.01
2019-02-20T19:06:26.777Z,8.88
2019-02-20T19:11:43.638Z,8.83
2019-02-20T19:17:33.578Z,8.54
2019-02-20T19:23:18.439Z,8.34
2019-02-20T19:28:44.556Z,8.18
2019-02-20T19:34:13.749Z,8.18
2019-02-20T19:39:27.094Z,8.18
2019-02-20T19:44:59.760Z,8.21
2019-02-20T19:50:34.971Z,8.14
2019-02-20T19:56:07.626Z,8.05
2019-02-20T20:01:39.895Z,7.81
2019-02-20T20:07:19.602Z,7.97
2019-02-20T20:13:20.614Z,8.27
2019-02-20T20:18:56.020Z,8.23
2019-02-20T20:24:52.867Z,8.09
2019-02-20T20:30:32.695Z,8.20
2019-02-20T20:35:47.777Z,8.11
2019-02-20T20:41:45.008Z,8.18
2019-02-20T20:47:43.832Z,8.08
2019-02-20T20:53:00.901Z,8.02
2019-02-20T20:58:27.231Z,7.91
2019-02-20T21:03:33.016Z,7.85
2019-02-20T21:09:11.926Z,7.72
2019-02-20T21:14:49.229Z,7.80
2019-02-20T21:20:13.767Z,7.70
2019-02-20T21:26:03.856Z,7.59
2019-02-20T21:31:43.771Z,7.77
2019-02-20T21:37:23.519Z,7.93
2019-02-20T21:42:50.271Z,7.65
2019-02-20T21:48:13.623Z,7.66
2019-02-20T21:54:08.235Z,7.57
2019-02-20T22:00:00.403Z,7.40
2019-02-20T22:05:29.383Z,7.49
2019-02-20T22:10:58.714Z,7.51
2019-02-20T22:16:10.638Z,7.55
2019-02-20T22:22:04.859Z,7.38
2019-02-20T22:27:48.806Z,7.32
2019-02-20T22:33:11.866Z,7.16
2019-02-20T22:38:43.679Z,7.12
2019-02-20T22:44:27.500Z,7.06
2019-02-20T22:50:11.335Z,7.56
2019-02-20T22:55:52.620Z,6.99
2019-02-20T23:01:40.922Z,6.90
2019-02-20T23:07:04.752Z,7.04
2019-02-20T23:12:35.268Z,7.18
2019-02-20T23:17:40.255Z,7.10
2019-02-20T23:22:42.272Z,6.97
2019-02-20T23:27:44.443Z,6.93
2019-02-20T23:32:46.498Z,7.05
2019-02-20T23:37:49.767Z,7.00
2019-02-20T23:42:52.022Z,6.81
2019-02-20T23:47:56.968Z,7.04
2019-02-20T23:52:59.088Z,7.12
2019-02-20T23:58:01.211Z,7.05
